sensor_id;sensor_type;location;lat;lon;timestamp;P1;durP1;ratioP1;P2;durP2;ratioP2
18251;SDS011;26917;52.328;20.878;2023-02-25T00:01:40;52.65;;;20.02;;
18251;SDS011;26917;52.328;20.878;2023-02-25T00:04:28;41.78;;;21.50;;
18251;SDS011;26917;52.328;20.878;2023-02-25T00:06:58;36.97;;;19.55;;
18251;SDS011;26917;52.328;20.878;2023-02-25T00:09:27;38.90;;;18.33;;
18251;SDS011;26917;52.328;20.878;2023-02-25T00:11:58;42.60;;;19.35;;
18251;SDS011;26917;52.328;20.878;2023-02-25T00:14:27;35.47;;;18.90;;
18251;SDS011;26917;52.328;20.878;2023-02-25T00:16:55;44.30;;;19.67;;
18251;SDS011;26917;52.328;20.878;2023-02-25T00:19:24;40.38;;;18.67;;
18251;SDS011;26917;52.328;20.878;2023-02-25T00:21:58;38.63;;;18.55;;
18251;SDS011;26917;52.328;20.878;2023-02-25T00:24:28;38.03;;;18.02;;
18251;SDS011;26917;52.328;20.878;2023-02-25T00:26:56;40.53;;;17.08;;
18251;SDS011;26917;52.328;20.878;2023-02-25T00:29:24;43.30;;;19.33;;
18251;SDS011;26917;52.328;20.878;2023-02-25T00:31:53;36.80;;;17.67;;
18251;SDS011;26917;52.328;20.878;2023-02-25T00:34:21;40.25;;;18.83;;
18251;SDS011;26917;52.328;20.878;2023-02-25T00:36:50;37.63;;;17.77;;
18251;SDS011;26917;52.328;20.878;2023-02-25T00:39:22;37.13;;;17.55;;
18251;SDS011;26917;52.328;20.878;2023-02-25T00:42:11;38.60;;;17.17;;
18251;SDS011;26917;52.328;20.878;2023-02-25T00:44:42;40.83;;;19.42;;
18251;SDS011;26917;52.328;20.878;2023-02-25T00:47:15;48.03;;;19.60;;
18251;SDS011;26917;52.328;20.878;2023-02-25T00:49:45;32.47;;;17.20;;
18251;SDS011;26917;52.328;20.878;2023-02-25T00:52:15;37.85;;;18.77;;
18251;SDS011;26917;52.328;20.878;2023-02-25T00:54:46;36.22;;;17.08;;
18251;SDS011;26917;52.328;20.878;2023-02-25T00:57:14;49.03;;;18.20;;
18251;SDS011;26917;52.328;20.878;2023-02-25T00:59:43;32.30;;;16.88;;
18251;SDS011;26917;52.328;20.878;2023-02-25T01:02:11;37.55;;;17.30;;
18251;SDS011;26917;52.328;20.878;2023-02-25T01:04:40;38.72;;;17.95;;
18251;SDS011;26917;52.328;20.878;2023-02-25T01:07:08;39.90;;;18.77;;
18251;SDS011;26917;52.328;20.878;2023-02-25T01:09:37;38.78;;;18.52;;
18251;SDS011;26917;52.328;20.878;2023-02-25T01:12:07;38.25;;;18.73;;
18251;SDS011;26917;52.328;20.878;2023-02-25T01:14:36;40.00;;;18.27;;
18251;SDS011;26917;52.328;20.878;2023-02-25T01:17:04;39.45;;;18.80;;
18251;SDS011;26917;52.328;20.878;2023-02-25T01:19:35;42.47;;;19.10;;
18251;SDS011;26917;52.328;20.878;2023-02-25T01:22:03;41.50;;;18.38;;
18251;SDS011;26917;52.328;20.878;2023-02-25T01:24:32;35.58;;;17.85;;
18251;SDS011;26917;52.328;20.878;2023-02-25T01:27:02;40.05;;;18.10;;
18251;SDS011;26917;52.328;20.878;2023-02-25T01:29:33;42.03;;;17.85;;
18251;SDS011;26917;52.328;20.878;2023-02-25T01:32:05;35.63;;;17.02;;
18251;SDS011;26917;52.328;20.878;2023-02-25T01:34:35;36.92;;;15.57;;
18251;SDS011;26917;52.328;20.878;2023-02-25T01:37:06;36.90;;;16.95;;
18251;SDS011;26917;52.328;20.878;2023-02-25T01:39:39;34.67;;;17.02;;
18251;SDS011;26917;52.328;20.878;2023-02-25T01:42:10;37.05;;;17.00;;
18251;SDS011;26917;52.328;20.878;2023-02-25T01:47:45;33.95;;;16.60;;
18251;SDS011;26917;52.328;20.878;2023-02-25T01:50:16;33.78;;;16.33;;
18251;SDS011;26917;52.328;20.878;2023-02-25T01:52:45;31.83;;;16.65;;
18251;SDS011;26917;52.328;20.878;2023-02-25T01:55:14;44.03;;;17.70;;
18251;SDS011;26917;52.328;20.878;2023-02-25T01:57:43;43.70;;;17.35;;
18251;SDS011;26917;52.328;20.878;2023-02-25T02:00:12;29.35;;;14.23;;
18251;SDS011;26917;52.328;20.878;2023-02-25T02:02:43;32.22;;;14.88;;
18251;SDS011;26917;52.328;20.878;2023-02-25T02:05:15;36.53;;;16.33;;
18251;SDS011;26917;52.328;20.878;2023-02-25T02:07:44;37.22;;;15.23;;
18251;SDS011;26917;52.328;20.878;2023-02-25T02:10:13;30.38;;;14.13;;
18251;SDS011;26917;52.328;20.878;2023-02-25T02:12:43;30.10;;;14.77;;
18251;SDS011;26917;52.328;20.878;2023-02-25T02:15:14;34.17;;;14.88;;
18251;SDS011;26917;52.328;20.878;2023-02-25T02:17:45;28.13;;;14.27;;
18251;SDS011;26917;52.328;20.878;2023-02-25T02:20:18;33.33;;;14.57;;
18251;SDS011;26917;52.328;20.878;2023-02-25T02:23:00;35.13;;;14.90;;
18251;SDS011;26917;52.328;20.878;2023-02-25T02:29:12;36.08;;;15.15;;
18251;SDS011;26917;52.328;20.878;2023-02-25T02:31:57;30.90;;;14.45;;
18251;SDS011;26917;52.328;20.878;2023-02-25T02:34:36;32.03;;;14.68;;
18251;SDS011;26917;52.328;20.878;2023-02-25T02:37:16;27.08;;;13.75;;
18251;SDS011;26917;52.328;20.878;2023-02-25T02:39:55;34.28;;;14.25;;
18251;SDS011;26917;52.328;20.878;2023-02-25T02:42:36;37.85;;;15.77;;
18251;SDS011;26917;52.328;20.878;2023-02-25T02:45:10;29.17;;;14.57;;
18251;SDS011;26917;52.328;20.878;2023-02-25T02:47:48;31.50;;;14.90;;
18251;SDS011;26917;52.328;20.878;2023-02-25T02:50:23;36.88;;;16.58;;
18251;SDS011;26917;52.328;20.878;2023-02-25T02:52:57;32.22;;;15.50;;
18251;SDS011;26917;52.328;20.878;2023-02-25T02:55:31;41.55;;;16.40;;
18251;SDS011;26917;52.328;20.878;2023-02-25T02:58:05;37.40;;;18.27;;
18251;SDS011;26917;52.328;20.878;2023-02-25T03:00:36;37.58;;;17.08;;
18251;SDS011;26917;52.328;20.878;2023-02-25T03:03:10;37.15;;;16.25;;
18251;SDS011;26917;52.328;20.878;2023-02-25T03:05:42;34.70;;;15.80;;
18251;SDS011;26917;52.328;20.878;2023-02-25T03:08:16;34.55;;;16.30;;
18251;SDS011;26917;52.328;20.878;2023-02-25T03:10:47;29.90;;;14.68;;
18251;SDS011;26917;52.328;20.878;2023-02-25T03:13:15;35.58;;;17.35;;
18251;SDS011;26917;52.328;20.878;2023-02-25T03:15:44;33.05;;;16.65;;
18251;SDS011;26917;52.328;20.878;2023-02-25T03:18:17;35.83;;;15.60;;
18251;SDS011;26917;52.328;20.878;2023-02-25T03:20:50;30.73;;;16.35;;
18251;SDS011;26917;52.328;20.878;2023-02-25T03:23:21;32.03;;;14.55;;
18251;SDS011;26917;52.328;20.878;2023-02-25T03:25:54;34.85;;;16.42;;
18251;SDS011;26917;52.328;20.878;2023-02-25T03:28:30;33.53;;;16.17;;
18251;SDS011;26917;52.328;20.878;2023-02-25T03:31:01;31.42;;;15.60;;
18251;SDS011;26917;52.328;20.878;2023-02-25T03:33:35;29.70;;;15.18;;
18251;SDS011;26917;52.328;20.878;2023-02-25T03:36:07;32.63;;;16.45;;
18251;SDS011;26917;52.328;20.878;2023-02-25T03:38:40;33.33;;;15.13;;
18251;SDS011;26917;52.328;20.878;2023-02-25T03:41:13;31.77;;;14.75;;
18251;SDS011;26917;52.328;20.878;2023-02-25T03:43:44;22.70;;;13.38;;
18251;SDS011;26917;52.328;20.878;2023-02-25T03:46:16;28.17;;;13.23;;
18251;SDS011;26917;52.328;20.878;2023-02-25T03:48:48;26.20;;;14.02;;
18251;SDS011;26917;52.328;20.878;2023-02-25T03:51:20;27.23;;;13.02;;
18251;SDS011;26917;52.328;20.878;2023-02-25T03:53:53;24.67;;;12.55;;
18251;SDS011;26917;52.328;20.878;2023-02-25T03:56:27;24.30;;;12.40;;
18251;SDS011;26917;52.328;20.878;2023-02-25T03:58:56;26.30;;;12.43;;
18251;SDS011;26917;52.328;20.878;2023-02-25T04:01:25;24.75;;;12.27;;
18251;SDS011;26917;52.328;20.878;2023-02-25T04:04:00;26.45;;;13.43;;
18251;SDS011;26917;52.328;20.878;2023-02-25T04:06:28;27.13;;;13.95;;
18251;SDS011;26917;52.328;20.878;2023-02-25T04:08:57;29.30;;;13.25;;
18251;SDS011;26917;52.328;20.878;2023-02-25T04:11:26;21.48;;;12.25;;
18251;SDS011;26917;52.328;20.878;2023-02-25T04:13:55;27.42;;;12.55;;
18251;SDS011;26917;52.328;20.878;2023-02-25T04:16:25;24.58;;;12.88;;
18251;SDS011;26917;52.328;20.878;2023-02-25T04:19:05;23.90;;;12.70;;
18251;SDS011;26917;52.328;20.878;2023-02-25T04:21:50;19.85;;;12.88;;
18251;SDS011;26917;52.328;20.878;2023-02-25T04:24:18;28.45;;;13.95;;
18251;SDS011;26917;52.328;20.878;2023-02-25T04:26:56;25.00;;;11.93;;
18251;SDS011;26917;52.328;20.878;2023-02-25T04:29:40;25.58;;;12.77;;
18251;SDS011;26917;52.328;20.878;2023-02-25T04:33:11;24.50;;;11.55;;
18251;SDS011;26917;52.328;20.878;2023-02-25T04:35:42;24.02;;;13.30;;
18251;SDS011;26917;52.328;20.878;2023-02-25T05:04:35;28.33;;;13.48;;
18251;SDS011;26917;52.328;20.878;2023-02-25T05:11:18;28.35;;;13.40;;
18251;SDS011;26917;52.328;20.878;2023-02-25T05:14:03;24.40;;;12.52;;
18251;SDS011;26917;52.328;20.878;2023-02-25T05:30:39;21.98;;;11.23;;
18251;SDS011;26917;52.328;20.878;2023-02-25T05:40:16;22.00;;;10.25;;
18251;SDS011;26917;52.328;20.878;2023-02-25T05:42:54;18.98;;;10.80;;
18251;SDS011;26917;52.328;20.878;2023-02-25T05:45:26;19.63;;;11.07;;
18251;SDS011;26917;52.328;20.878;2023-02-25T05:49:20;19.05;;;11.90;;
18251;SDS011;26917;52.328;20.878;2023-02-25T05:51:50;23.50;;;11.60;;
18251;SDS011;26917;52.328;20.878;2023-02-25T06:41:32;30.65;;;15.30;;
18251;SDS011;26917;52.328;20.878;2023-02-25T06:44:49;32.35;;;15.88;;
18251;SDS011;26917;52.328;20.878;2023-02-25T06:51:33;33.33;;;16.35;;
18251;SDS011;26917;52.328;20.878;2023-02-25T06:54:02;33.83;;;17.60;;
18251;SDS011;26917;52.328;20.878;2023-02-25T06:56:33;34.60;;;18.08;;
18251;SDS011;26917;52.328;20.878;2023-02-25T07:00:09;36.25;;;17.00;;
18251;SDS011;26917;52.328;20.878;2023-02-25T07:02:44;34.13;;;16.90;;
18251;SDS011;26917;52.328;20.878;2023-02-25T07:10:14;32.30;;;16.60;;
18251;SDS011;26917;52.328;20.878;2023-02-25T07:31:46;31.58;;;15.73;;
18251;SDS011;26917;52.328;20.878;2023-02-25T08:18:27;37.90;;;17.50;;
18251;SDS011;26917;52.328;20.878;2023-02-25T08:28:32;37.70;;;17.27;;
18251;SDS011;26917;52.328;20.878;2023-02-25T08:34:20;44.75;;;17.77;;
18251;SDS011;26917;52.328;20.878;2023-02-25T08:36:51;35.42;;;17.08;;
18251;SDS011;26917;52.328;20.878;2023-02-25T08:39:22;37.50;;;19.15;;
18251;SDS011;26917;52.328;20.878;2023-02-25T08:41:50;35.60;;;17.40;;
18251;SDS011;26917;52.328;20.878;2023-02-25T08:47:56;34.58;;;16.30;;
18251;SDS011;26917;52.328;20.878;2023-02-25T08:50:25;35.10;;;17.05;;
18251;SDS011;26917;52.328;20.878;2023-02-25T08:53:06;31.33;;;15.55;;
18251;SDS011;26917;52.328;20.878;2023-02-25T08:55:37;32.20;;;14.75;;
18251;SDS011;26917;52.328;20.878;2023-02-25T08:59:08;34.28;;;17.05;;
18251;SDS011;26917;52.328;20.878;2023-02-25T09:09:21;33.30;;;16.38;;
18251;SDS011;26917;52.328;20.878;2023-02-25T09:11:54;31.80;;;16.33;;
18251;SDS011;26917;52.328;20.878;2023-02-25T09:14:26;36.67;;;16.65;;
18251;SDS011;26917;52.328;20.878;2023-02-25T09:17:03;35.08;;;16.27;;
18251;SDS011;26917;52.328;20.878;2023-02-25T09:19:34;37.92;;;16.08;;
18251;SDS011;26917;52.328;20.878;2023-02-25T09:25:42;33.55;;;16.60;;
18251;SDS011;26917;52.328;20.878;2023-02-25T09:28:21;29.73;;;15.57;;
18251;SDS011;26917;52.328;20.878;2023-02-25T09:30:50;33.42;;;15.75;;
18251;SDS011;26917;52.328;20.878;2023-02-25T09:33:22;31.15;;;16.02;;
18251;SDS011;26917;52.328;20.878;2023-02-25T09:35:51;30.60;;;14.88;;
18251;SDS011;26917;52.328;20.878;2023-02-25T09:38:40;28.10;;;14.90;;
18251;SDS011;26917;52.328;20.878;2023-02-25T09:41:30;25.95;;;13.20;;
18251;SDS011;26917;52.328;20.878;2023-02-25T09:44:12;26.33;;;14.13;;
18251;SDS011;26917;52.328;20.878;2023-02-25T09:46:58;21.42;;;11.82;;
18251;SDS011;26917;52.328;20.878;2023-02-25T09:49:33;15.02;;;9.95;;
18251;SDS011;26917;52.328;20.878;2023-02-25T09:52:06;17.10;;;10.43;;
18251;SDS011;26917;52.328;20.878;2023-02-25T09:54:43;15.40;;;8.82;;
18251;SDS011;26917;52.328;20.878;2023-02-25T09:57:17;20.67;;;10.32;;
18251;SDS011;26917;52.328;20.878;2023-02-25T09:59:48;23.85;;;11.27;;
18251;SDS011;26917;52.328;20.878;2023-02-25T10:02:20;18.27;;;10.50;;
18251;SDS011;26917;52.328;20.878;2023-02-25T10:05:23;19.15;;;10.43;;
18251;SDS011;26917;52.328;20.878;2023-02-25T10:08:17;17.63;;;9.40;;
18251;SDS011;26917;52.328;20.878;2023-02-25T10:10:50;21.48;;;10.68;;
18251;SDS011;26917;52.328;20.878;2023-02-25T10:13:35;19.63;;;11.15;;
18251;SDS011;26917;52.328;20.878;2023-02-25T10:16:24;21.35;;;12.48;;
18251;SDS011;26917;52.328;20.878;2023-02-25T10:19:05;22.38;;;11.70;;
18251;SDS011;26917;52.328;20.878;2023-02-25T10:24:45;23.85;;;12.52;;
18251;SDS011;26917;52.328;20.878;2023-02-25T10:27:47;25.42;;;13.48;;
18251;SDS011;26917;52.328;20.878;2023-02-25T10:33:12;25.50;;;13.40;;
18251;SDS011;26917;52.328;20.878;2023-02-25T10:35:46;24.65;;;12.85;;
18251;SDS011;26917;52.328;20.878;2023-02-25T10:38:25;13.65;;;8.82;;
18251;SDS011;26917;52.328;20.878;2023-02-25T10:40:56;11.00;;;7.60;;
18251;SDS011;26917;52.328;20.878;2023-02-25T10:43:33;15.13;;;7.93;;
18251;SDS011;26917;52.328;20.878;2023-02-25T10:46:22;11.50;;;6.75;;
18251;SDS011;26917;52.328;20.878;2023-02-25T10:48:59;9.85;;;6.97;;
18251;SDS011;26917;52.328;20.878;2023-02-25T10:51:59;7.53;;;6.45;;
18251;SDS011;26917;52.328;20.878;2023-02-25T10:54:47;11.45;;;6.70;;
18251;SDS011;26917;52.328;20.878;2023-02-25T10:57:22;19.13;;;7.30;;
18251;SDS011;26917;52.328;20.878;2023-02-25T10:59:58;13.65;;;7.32;;
18251;SDS011;26917;52.328;20.878;2023-02-25T11:02:29;18.52;;;8.07;;
18251;SDS011;26917;52.328;20.878;2023-02-25T11:05:10;14.27;;;7.97;;
18251;SDS011;26917;52.328;20.878;2023-02-25T11:07:56;14.00;;;8.48;;
18251;SDS011;26917;52.328;20.878;2023-02-25T11:10:43;10.95;;;6.65;;
18251;SDS011;26917;52.328;20.878;2023-02-25T11:13:27;15.35;;;8.07;;
18251;SDS011;26917;52.328;20.878;2023-02-25T11:15:57;12.13;;;7.70;;
18251;SDS011;26917;52.328;20.878;2023-02-25T11:18:33;12.90;;;8.15;;
18251;SDS011;26917;52.328;20.878;2023-02-25T11:21:04;15.77;;;8.32;;
18251;SDS011;26917;52.328;20.878;2023-02-25T11:23:35;15.20;;;8.07;;
18251;SDS011;26917;52.328;20.878;2023-02-25T11:26:06;14.73;;;7.95;;
18251;SDS011;26917;52.328;20.878;2023-02-25T11:28:42;16.35;;;8.85;;
18251;SDS011;26917;52.328;20.878;2023-02-25T11:31:14;14.07;;;8.43;;
18251;SDS011;26917;52.328;20.878;2023-02-25T11:33:50;16.92;;;8.35;;
18251;SDS011;26917;52.328;20.878;2023-02-25T11:36:33;12.73;;;9.07;;
18251;SDS011;26917;52.328;20.878;2023-02-25T11:39:12;13.07;;;8.38;;
18251;SDS011;26917;52.328;20.878;2023-02-25T11:41:45;19.50;;;10.02;;
18251;SDS011;26917;52.328;20.878;2023-02-25T11:44:25;16.05;;;9.75;;
18251;SDS011;26917;52.328;20.878;2023-02-25T11:46:57;13.63;;;8.38;;
18251;SDS011;26917;52.328;20.878;2023-02-25T11:49:38;16.02;;;9.60;;
18251;SDS011;26917;52.328;20.878;2023-02-25T11:52:17;14.57;;;9.82;;
18251;SDS011;26917;52.328;20.878;2023-02-25T11:54:55;17.15;;;10.25;;
18251;SDS011;26917;52.328;20.878;2023-02-25T11:57:47;16.33;;;9.55;;
18251;SDS011;26917;52.328;20.878;2023-02-25T12:00:26;17.45;;;9.98;;
18251;SDS011;26917;52.328;20.878;2023-02-25T12:03:09;14.80;;;8.90;;
18251;SDS011;26917;52.328;20.878;2023-02-25T12:05:58;16.98;;;9.63;;
18251;SDS011;26917;52.328;20.878;2023-02-25T12:08:43;15.40;;;9.95;;
18251;SDS011;26917;52.328;20.878;2023-02-25T12:27:14;12.77;;;8.80;;
18251;SDS011;26917;52.328;20.878;2023-02-25T12:33:34;15.15;;;9.18;;
18251;SDS011;26917;52.328;20.878;2023-02-25T12:36:25;14.20;;;8.40;;
18251;SDS011;26917;52.328;20.878;2023-02-25T12:39:18;9.27;;;6.63;;
18251;SDS011;26917;52.328;20.878;2023-02-25T12:42:02;6.55;;;5.47;;
18251;SDS011;26917;52.328;20.878;2023-02-25T12:45:02;6.85;;;4.72;;
18251;SDS011;26917;52.328;20.878;2023-02-25T12:48:11;7.53;;;4.18;;
18251;SDS011;26917;52.328;20.878;2023-02-25T12:50:59;6.25;;;5.15;;
18251;SDS011;26917;52.328;20.878;2023-02-25T12:53:42;8.40;;;5.32;;
18251;SDS011;26917;52.328;20.878;2023-02-25T13:02:30;7.55;;;4.35;;
18251;SDS011;26917;52.328;20.878;2023-02-25T13:05:20;7.03;;;5.18;;
18251;SDS011;26917;52.328;20.878;2023-02-25T13:08:15;6.82;;;5.03;;
18251;SDS011;26917;52.328;20.878;2023-02-25T13:10:56;6.70;;;4.63;;
18251;SDS011;26917;52.328;20.878;2023-02-25T13:13:44;7.38;;;5.40;;
18251;SDS011;26917;52.328;20.878;2023-02-25T13:16:25;6.60;;;5.05;;
18251;SDS011;26917;52.328;20.878;2023-02-25T13:19:22;7.63;;;5.38;;
18251;SDS011;26917;52.328;20.878;2023-02-25T13:22:04;10.20;;;6.07;;
18251;SDS011;26917;52.328;20.878;2023-02-25T13:24:44;7.95;;;5.38;;
18251;SDS011;26917;52.328;20.878;2023-02-25T13:30:20;8.82;;;6.57;;
18251;SDS011;26917;52.328;20.878;2023-02-25T13:33:01;7.93;;;5.15;;
18251;SDS011;26917;52.328;20.878;2023-02-25T13:35:43;8.32;;;5.22;;
18251;SDS011;26917;52.328;20.878;2023-02-25T13:38:26;8.50;;;5.85;;
18251;SDS011;26917;52.328;20.878;2023-02-25T13:41:12;6.05;;;5.25;;
18251;SDS011;26917;52.328;20.878;2023-02-25T13:43:58;6.00;;;4.97;;
18251;SDS011;26917;52.328;20.878;2023-02-25T13:47:13;6.63;;;4.72;;
18251;SDS011;26917;52.328;20.878;2023-02-25T13:50:17;6.25;;;5.00;;
18251;SDS011;26917;52.328;20.878;2023-02-25T13:53:22;5.80;;;4.50;;
18251;SDS011;26917;52.328;20.878;2023-02-25T13:56:19;7.60;;;4.03;;
18251;SDS011;26917;52.328;20.878;2023-02-25T13:59:15;5.35;;;4.13;;
18251;SDS011;26917;52.328;20.878;2023-02-25T14:01:58;4.60;;;4.18;;
18251;SDS011;26917;52.328;20.878;2023-02-25T14:04:48;6.30;;;4.07;;
18251;SDS011;26917;52.328;20.878;2023-02-25T14:10:24;8.40;;;5.35;;
18251;SDS011;26917;52.328;20.878;2023-02-25T14:16:22;5.97;;;4.80;;
18251;SDS011;26917;52.328;20.878;2023-02-25T14:19:23;6.90;;;5.05;;
18251;SDS011;26917;52.328;20.878;2023-02-25T14:25:13;5.80;;;4.85;;
18251;SDS011;26917;52.328;20.878;2023-02-25T14:27:49;8.25;;;5.63;;
18251;SDS011;26917;52.328;20.878;2023-02-25T14:30:29;5.53;;;4.85;;
18251;SDS011;26917;52.328;20.878;2023-02-25T14:33:14;7.80;;;5.20;;
18251;SDS011;26917;52.328;20.878;2023-02-25T14:39:05;6.18;;;5.38;;
18251;SDS011;26917;52.328;20.878;2023-02-25T14:44:47;7.25;;;5.60;;
18251;SDS011;26917;52.328;20.878;2023-02-25T14:47:26;6.10;;;4.95;;
18251;SDS011;26917;52.328;20.878;2023-02-25T14:50:19;7.95;;;5.60;;
18251;SDS011;26917;52.328;20.878;2023-02-25T14:53:01;5.78;;;5.18;;
18251;SDS011;26917;52.328;20.878;2023-02-25T14:55:56;7.40;;;5.93;;
18251;SDS011;26917;52.328;20.878;2023-02-25T15:05:31;10.70;;;6.43;;
18251;SDS011;26917;52.328;20.878;2023-02-25T15:08:16;11.25;;;6.93;;
18251;SDS011;26917;52.328;20.878;2023-02-25T15:20:20;11.25;;;8.77;;
18251;SDS011;26917;52.328;20.878;2023-02-25T15:23:06;9.73;;;6.95;;
18251;SDS011;26917;52.328;20.878;2023-02-25T15:25:44;10.77;;;7.57;;
18251;SDS011;26917;52.328;20.878;2023-02-25T15:34:31;9.93;;;6.65;;
18251;SDS011;26917;52.328;20.878;2023-02-25T15:43:35;12.95;;;7.85;;
18251;SDS011;26917;52.328;20.878;2023-02-25T15:46:29;13.07;;;7.72;;
18251;SDS011;26917;52.328;20.878;2023-02-25T15:49:27;10.20;;;6.88;;
18251;SDS011;26917;52.328;20.878;2023-02-25T15:52:03;12.52;;;8.15;;
18251;SDS011;26917;52.328;20.878;2023-02-25T15:57:40;15.40;;;9.32;;
18251;SDS011;26917;52.328;20.878;2023-02-25T16:06:23;12.85;;;7.85;;
18251;SDS011;26917;52.328;20.878;2023-02-25T16:09:00;12.55;;;7.68;;
18251;SDS011;26917;52.328;20.878;2023-02-25T16:11:35;12.00;;;7.30;;
18251;SDS011;26917;52.328;20.878;2023-02-25T16:14:06;12.30;;;7.63;;
18251;SDS011;26917;52.328;20.878;2023-02-25T16:16:43;10.20;;;6.85;;
18251;SDS011;26917;52.328;20.878;2023-02-25T16:19:16;11.77;;;7.15;;
18251;SDS011;26917;52.328;20.878;2023-02-25T16:21:48;14.90;;;7.47;;
18251;SDS011;26917;52.328;20.878;2023-02-25T16:24:20;10.98;;;7.10;;
18251;SDS011;26917;52.328;20.878;2023-02-25T16:26:54;12.68;;;7.10;;
18251;SDS011;26917;52.328;20.878;2023-02-25T16:29:34;11.88;;;6.93;;
18251;SDS011;26917;52.328;20.878;2023-02-25T16:32:16;12.10;;;8.15;;
18251;SDS011;26917;52.328;20.878;2023-02-25T16:34:54;11.98;;;7.00;;
18251;SDS011;26917;52.328;20.878;2023-02-25T16:37:28;14.55;;;8.15;;
18251;SDS011;26917;52.328;20.878;2023-02-25T16:42:52;14.93;;;8.57;;
18251;SDS011;26917;52.328;20.878;2023-02-25T16:45:23;14.70;;;8.15;;
18251;SDS011;26917;52.328;20.878;2023-02-25T16:47:59;12.50;;;7.80;;
18251;SDS011;26917;52.328;20.878;2023-02-25T16:50:35;14.65;;;9.02;;
18251;SDS011;26917;52.328;20.878;2023-02-25T16:53:08;11.73;;;7.28;;
18251;SDS011;26917;52.328;20.878;2023-02-25T16:55:44;15.43;;;9.13;;
18251;SDS011;26917;52.328;20.878;2023-02-25T16:58:23;15.15;;;8.60;;
18251;SDS011;26917;52.328;20.878;2023-02-25T17:00:54;14.55;;;7.80;;
18251;SDS011;26917;52.328;20.878;2023-02-25T17:03:24;17.90;;;9.88;;
18251;SDS011;26917;52.328;20.878;2023-02-25T17:06:00;15.27;;;9.77;;
18251;SDS011;26917;52.328;20.878;2023-02-25T17:08:32;19.70;;;9.55;;
18251;SDS011;26917;52.328;20.878;2023-02-25T17:11:05;21.98;;;12.00;;
18251;SDS011;26917;52.328;20.878;2023-02-25T17:13:35;20.98;;;10.07;;
18251;SDS011;26917;52.328;20.878;2023-02-25T17:16:12;16.73;;;10.18;;
18251;SDS011;26917;52.328;20.878;2023-02-25T17:18:47;17.48;;;9.63;;
18251;SDS011;26917;52.328;20.878;2023-02-25T17:21:21;16.63;;;9.30;;
18251;SDS011;26917;52.328;20.878;2023-02-25T17:23:52;19.67;;;9.13;;
18251;SDS011;26917;52.328;20.878;2023-02-25T17:26:22;16.92;;;9.73;;
18251;SDS011;26917;52.328;20.878;2023-02-25T17:28:54;23.65;;;12.40;;
18251;SDS011;26917;52.328;20.878;2023-02-25T17:31:25;26.10;;;15.50;;
18251;SDS011;26917;52.328;20.878;2023-02-25T17:33:55;22.15;;;12.45;;
18251;SDS011;26917;52.328;20.878;2023-02-25T17:36:26;22.95;;;13.10;;
18251;SDS011;26917;52.328;20.878;2023-02-25T17:38:57;25.58;;;12.23;;
18251;SDS011;26917;52.328;20.878;2023-02-25T17:41:31;18.42;;;11.98;;
18251;SDS011;26917;52.328;20.878;2023-02-25T17:44:02;28.67;;;16.02;;
18251;SDS011;26917;52.328;20.878;2023-02-25T17:46:31;30.40;;;12.90;;
18251;SDS011;26917;52.328;20.878;2023-02-25T17:49:04;27.70;;;13.05;;
18251;SDS011;26917;52.328;20.878;2023-02-25T17:51:45;28.35;;;14.35;;
18251;SDS011;26917;52.328;20.878;2023-02-25T17:54:20;27.67;;;12.93;;
18251;SDS011;26917;52.328;20.878;2023-02-25T17:56:53;21.88;;;12.43;;
18251;SDS011;26917;52.328;20.878;2023-02-25T17:59:29;21.10;;;12.27;;
18251;SDS011;26917;52.328;20.878;2023-02-25T18:10:43;20.25;;;11.32;;
18251;SDS011;26917;52.328;20.878;2023-02-25T18:13:21;20.40;;;12.30;;
18251;SDS011;26917;52.328;20.878;2023-02-25T18:16:19;23.73;;;12.00;;
18251;SDS011;26917;52.328;20.878;2023-02-25T18:19:17;21.27;;;12.40;;
18251;SDS011;26917;52.328;20.878;2023-02-25T18:21:54;20.80;;;12.63;;
18251;SDS011;26917;52.328;20.878;2023-02-25T18:24:23;25.05;;;11.68;;
18251;SDS011;26917;52.328;20.878;2023-02-25T18:27:01;26.70;;;12.60;;
18251;SDS011;26917;52.328;20.878;2023-02-25T18:29:45;20.13;;;11.50;;
18251;SDS011;26917;52.328;20.878;2023-02-25T18:32:15;21.45;;;11.95;;
18251;SDS011;26917;52.328;20.878;2023-02-25T18:34:43;22.67;;;12.35;;
18251;SDS011;26917;52.328;20.878;2023-02-25T18:37:12;21.55;;;11.88;;
18251;SDS011;26917;52.328;20.878;2023-02-25T18:39:43;27.70;;;11.88;;
18251;SDS011;26917;52.328;20.878;2023-02-25T18:42:13;24.45;;;11.75;;
18251;SDS011;26917;52.328;20.878;2023-02-25T18:44:45;22.55;;;12.15;;
18251;SDS011;26917;52.328;20.878;2023-02-25T18:50:06;26.45;;;13.38;;
18251;SDS011;26917;52.328;20.878;2023-02-25T18:52:35;22.92;;;12.30;;
18251;SDS011;26917;52.328;20.878;2023-02-25T18:55:10;29.55;;;12.70;;
18251;SDS011;26917;52.328;20.878;2023-02-25T18:57:42;23.65;;;13.55;;
18251;SDS011;26917;52.328;20.878;2023-02-25T19:00:11;28.08;;;12.90;;
18251;SDS011;26917;52.328;20.878;2023-02-25T19:02:44;26.45;;;13.80;;
18251;SDS011;26917;52.328;20.878;2023-02-25T19:05:15;29.00;;;13.10;;
18251;SDS011;26917;52.328;20.878;2023-02-25T19:07:44;31.95;;;15.20;;
18251;SDS011;26917;52.328;20.878;2023-02-25T19:10:13;27.23;;;15.30;;
18251;SDS011;26917;52.328;20.878;2023-02-25T19:12:44;30.30;;;14.75;;
18251;SDS011;26917;52.328;20.878;2023-02-25T19:15:20;26.70;;;14.35;;
18251;SDS011;26917;52.328;20.878;2023-02-25T19:17:54;32.78;;;15.35;;
18251;SDS011;26917;52.328;20.878;2023-02-25T19:20:23;28.13;;;14.57;;
18251;SDS011;26917;52.328;20.878;2023-02-25T19:22:51;28.30;;;13.35;;
18251;SDS011;26917;52.328;20.878;2023-02-25T19:25:21;29.02;;;13.70;;
18251;SDS011;26917;52.328;20.878;2023-02-25T19:27:51;22.23;;;12.07;;
18251;SDS011;26917;52.328;20.878;2023-02-25T19:30:22;23.63;;;11.93;;
18251;SDS011;26917;52.328;20.878;2023-02-25T19:32:54;19.23;;;12.48;;
18251;SDS011;26917;52.328;20.878;2023-02-25T19:35:31;18.42;;;11.25;;
18251;SDS011;26917;52.328;20.878;2023-02-25T19:38:01;18.48;;;10.80;;
18251;SDS011;26917;52.328;20.878;2023-02-25T19:40:30;23.40;;;11.75;;
18251;SDS011;26917;52.328;20.878;2023-02-25T19:43:08;18.40;;;10.85;;
18251;SDS011;26917;52.328;20.878;2023-02-25T19:45:37;21.80;;;11.65;;
18251;SDS011;26917;52.328;20.878;2023-02-25T19:48:08;18.52;;;10.85;;
18251;SDS011;26917;52.328;20.878;2023-02-25T19:50:38;18.27;;;10.45;;
18251;SDS011;26917;52.328;20.878;2023-02-25T19:53:07;19.20;;;11.43;;
18251;SDS011;26917;52.328;20.878;2023-02-25T19:55:41;20.25;;;10.27;;
18251;SDS011;26917;52.328;20.878;2023-02-25T19:58:09;21.75;;;10.30;;
18251;SDS011;26917;52.328;20.878;2023-02-25T20:00:49;17.90;;;9.98;;
18251;SDS011;26917;52.328;20.878;2023-02-25T20:06:42;17.50;;;10.52;;
18251;SDS011;26917;52.328;20.878;2023-02-25T20:09:18;17.15;;;9.95;;
18251;SDS011;26917;52.328;20.878;2023-02-25T20:12:27;16.20;;;8.95;;
18251;SDS011;26917;52.328;20.878;2023-02-25T20:15:36;13.15;;;9.15;;
18251;SDS011;26917;52.328;20.878;2023-02-25T20:18:07;19.15;;;9.80;;
18251;SDS011;26917;52.328;20.878;2023-02-25T20:20:44;15.48;;;9.18;;
18251;SDS011;26917;52.328;20.878;2023-02-25T20:24:11;14.52;;;8.55;;